• Join FlightAware (Why Join?)
  • Login
  • US Flag 
08:39AM EDT


 

Airport Tracker/Info


-or-


 

Live Flight TrackerFlight Track Log ✈ AWE2690 ✈ 06-Nov-2013 ✈ KMYR - KCLT

Flight Track Log - Related Links

Times and Time Zones

All times are in EST time to prevent confusion due to time zone crossing. See the AWE2690 flight status page for this flight to view local times or setup timezone preferences in your user account.

Time Position Orientation Groundspeed Altitude Reporting Facility
EST Latitude Longitude Course Direction KTS MPH feet Rate Location/Type
11:25AM 33.7436 -78.9539 312° West 174 200 3,400  Level Jacksonville Center
11:26AM 33.7917 -79.0242 309° West 218 251 6,400 3,300 Climbing Jacksonville Center
11:27AM 33.8736 -79.1773 313° West  Level Estimated
11:27AM 33.8461 -79.1017 310° West 266 306 10,000  Level Jacksonville Center
11:28AM 33.9213 -79.2404 312° West  Level FlightAware Approximate
11:28AM 33.8986 -79.1822 308° West 294 338 13,400  Level Jacksonville Center
11:29AM 33.9697 -79.3028 312° West  Level Estimated
11:29AM 33.9553 -79.2622 311° West 312 359 15,800  Level Jacksonville Center
11:30AM 34.0183 -79.3550 309° West 336 387 17,000 600 Climbing Jacksonville Center
11:31AM 34.0897 -79.4472 313° West 352 405 17,000  Level Jacksonville Center
11:32AM 34.1636 -79.5522 310° West 380 437 17,000  Level Jacksonville Center
11:33AM 34.2308 -79.6528 309° West 380 437 17,000 -480 Level Jacksonville Center
11:34AM 34.2936 -79.7433 310° West 375 432 16,100 -960 Descending Jacksonville Center
11:35AM 34.3608 -79.8389 310° West 370 426 15,100 -1,020 Descending Jacksonville Center
11:36AM 34.4256 -79.9297 311° West 370 426 14,100 -960 Descending Jacksonville Center
11:37AM 34.4858 -80.0208 309° West 365 420 13,200 -900 Descending Jacksonville Center
11:38AM 34.5506 -80.1144 310° West 360 414 12,400 -840 Descending Jacksonville Center
11:40AM 34.6483 -80.2664 308° West 301 346 11,000 -540 Descending Atlanta Center
11:41AM 34.7072 -80.3497 311° West 296 341 11,000  Level Atlanta Center
11:42AM 34.7722 -80.4278 315° West 305 351 11,000 -480 Level Atlanta Center
11:43AM 34.8242 -80.4964 313° West 305 351 10,100 -1,080 Descending Atlanta Center
11:44AM 34.8828 -80.5700 314° West 301 346 9,000 -600 Descending Atlanta Center
11:45AM 34.9453 -80.6483 314° West 303 349 9,000  Level Atlanta Center
11:46AM 35.0036 -80.7219 314° West 304 350 9,000  Level Atlanta Center
11:47AM 35.0619 -80.7958 314° West 299 344 9,000  Level Atlanta Center
11:48AM 35.1439 -80.8181 347° North 301 346 9,000 -480 Level Atlanta Center
11:49AM 35.2236 -80.8278 354° North 257 296 8,100 -1,080 Descending Atlanta Center
11:50AM 35.2925 -80.8325 357° North 239 275 6,900 -1,260 Descending Atlanta Center
11:51AM 35.3572 -80.8378 356° North 243 280 5,600 -1,380 Descending Atlanta Center
11:52AM 35.4286 -80.8478 353° North 239 275 4,200 -840 Descending Atlanta Center
11:53AM 35.4631 -80.8922 314° West 219 252 4,000 -120 Descending Atlanta Center
11:54AM 35.4328 -80.9342 228° Southwest 165 190 4,000  Level Atlanta Center
11:55AM 35.3875 -80.9539 200° South 162 186 4,000 -540 Level Atlanta Center
11:56AM 35.3372 -80.9481 175° South 176 203 3,000 -900 Descending Atlanta Center
11:57AM 35.2956 -80.9469 179° South 157 181 2,200 -840 Descending Atlanta Center
11:58AM 35.2578 -80.9433 176° South 135 155 1,400 -840 Descending Atlanta Center